Time;durP1;ratioP1;P1;durP2;ratioP2;P2;SDS_P1;SDS_P2;PMS_P1;PMS_P2;Temp;Humidity;BMP_temperature;BMP_pressure;BME280_temperature;BME280_humidity;BME280_pressure;Samples;Min_cycle;Max_cycle;Signal;HPM_P1;HPM_P2
2021/10/04 00:01:57;;;;;;;;;;;;;;;15.86;100.00;100475.38;5071200;28;20011;-69
2021/10/04 00:04:23;;;;;;;;;;;;;;;15.82;100.00;100471.25;5071486;28;19924;-69
2021/10/04 00:06:49;;;;;;;;;;;;;;;15.80;100.00;100472.41;5071285;28;19929;-70
2021/10/04 00:09:16;;;;;;;;;;;;;;;15.74;100.00;100474.75;5071294;28;19970;-69
2021/10/04 00:11:42;;;;;;;;;;;;;;;15.71;100.00;100483.31;5070876;28;20034;-69
2021/10/04 00:14:08;;;;;;;;;;;;;;;15.70;100.00;100472.50;5071227;28;20376;-69
2021/10/04 00:16:36;;;;;;;;;;;;;;;15.67;100.00;100481.06;5070944;28;19925;-69
2021/10/04 00:19:04;;;;;;;;;;;;;;;15.66;100.00;100487.53;5071214;28;19924;-69
2021/10/04 00:21:30;;;;;;;;;;;;;;;15.64;100.00;100490.44;5070941;28;20015;-69
2021/10/04 00:23:56;;;;;;;;;;;;;;;15.62;100.00;100499.84;5071532;28;20027;-69
2021/10/04 00:26:23;;;;;;;;;;;;;;;15.64;100.00;100498.66;5071033;28;20240;-69
2021/10/04 00:28:49;;;;;;;;;;;;;;;15.67;100.00;100495.63;5070606;28;20019;-69
2021/10/04 00:31:15;;;;;;;;;;;;;;;15.70;100.00;100502.59;5070890;28;19924;-69
2021/10/04 00:33:41;;;;;;;;;;;;;;;15.76;100.00;100507.44;5071030;28;20019;-69
2021/10/04 00:36:09;;;;;;;;;;;;;;;15.79;100.00;100509.00;5070721;28;20476;-69
2021/10/04 00:38:35;;;;;;;;;;;;;;;15.83;100.00;100513.13;5070898;28;19967;-69
2021/10/04 00:41:02;;;;;;;;;;;;;;;15.85;100.00;100514.69;5071005;28;20338;-69
2021/10/04 00:43:28;;;;;;;;;;;;;;;15.88;100.00;100519.81;5070847;28;20035;-69
2021/10/04 00:45:54;;;;;;;;;;;;;;;15.92;100.00;100519.53;5070826;28;20359;-69
2021/10/04 00:48:21;;;;;;;;;;;;;;;15.96;100.00;100520.91;5070578;28;20019;-69
2021/10/04 00:50:49;;;;;;;;;;;;;;;15.96;100.00;100515.44;5070767;28;19924;-69
2021/10/04 00:53:16;;;;;;;;;;;;;;;15.95;100.00;100513.72;5070930;28;19929;-69
2021/10/04 00:55:43;;;;;;;;;;;;;;;15.99;100.00;100510.47;5070608;28;20039;-69
2021/10/04 00:58:11;;;;;;;;;;;;;;;15.98;100.00;100518.84;5070857;28;19924;-69
2021/10/04 01:00:38;;;;;;;;;;;;;;;16.03;100.00;100522.81;5071151;28;19932;-69
2021/10/04 01:03:04;;;;;;;;;;;;;;;16.10;100.00;100520.28;5070890;28;19925;-69
2021/10/04 01:05:31;;;;;;;;;;;;;;;16.17;100.00;100510.38;5070438;28;20023;-75
2021/10/04 01:07:57;;;;;;;;;;;;;;;16.21;100.00;100519.13;5070647;28;20043;-75
2021/10/04 01:10:26;;;;;;;;;;;;;;;16.24;100.00;100514.13;5070757;28;19978;-75
2021/10/04 01:12:53;;;;;;;;;;;;;;;16.32;100.00;100523.41;5070442;28;19929;-75
2021/10/04 01:15:20;;;;;;;;;;;;;;;16.37;100.00;100524.63;5070701;28;20454;-75
2021/10/04 01:17:46;;;;;;;;;;;;;;;16.41;100.00;100525.16;5070423;28;20022;-75
2021/10/04 01:20:15;;;;;;;;;;;;;;;16.43;100.00;100524.97;5052769;28;20019;-75
2021/10/04 01:22:42;;;;;;;;;;;;;;;16.43;100.00;100539.53;5070024;28;20003;-75
2021/10/04 01:25:10;;;;;;;;;;;;;;;16.43;100.00;100555.13;5052904;28;20035;-76
2021/10/04 01:27:36;;;;;;;;;;;;;;;16.42;100.00;100562.47;5070360;28;20368;-69
2021/10/04 01:30:02;;;;;;;;;;;;;;;16.40;100.00;100559.03;5070526;28;20023;-69
2021/10/04 01:32:29;;;;;;;;;;;;;;;16.37;100.00;100562.97;5070309;28;20007;-69
2021/10/04 01:34:56;;;;;;;;;;;;;;;16.34;100.00;100557.84;5070489;28;19924;-70
2021/10/04 01:37:24;;;;;;;;;;;;;;;16.29;100.00;100564.81;5070602;28;19956;-69
2021/10/04 01:39:51;;;;;;;;;;;;;;;16.23;100.00;100569.94;5070994;28;20436;-69
2021/10/04 01:42:18;;;;;;;;;;;;;;;16.21;100.00;100574.72;5073423;28;19970;-69
2021/10/04 01:44:44;;;;;;;;;;;;;;;16.21;100.00;100579.34;5074056;28;20023;-69
2021/10/04 01:47:10;;;;;;;;;;;;;;;16.21;100.00;100582.09;5056101;28;20023;-69
2021/10/04 01:49:37;;;;;;;;;;;;;;;16.20;100.00;100586.69;5074205;28;20016;-69
2021/10/04 01:52:03;;;;;;;;;;;;;;;16.19;100.00;100581.38;5073841;28;19925;-70
2021/10/04 01:54:31;;;;;;;;;;;;;;;16.18;100.00;100591.50;5073980;28;19935;-69
2021/10/04 01:56:57;;;;;;;;;;;;;;;16.16;100.00;100599.00;5073580;28;20019;-69
2021/10/04 01:59:23;;;;;;;;;;;;;;;16.16;100.00;100603.63;5073707;28;20023;-69
2021/10/04 02:01:50;;;;;;;;;;;;;;;16.12;100.00;100603.09;5073479;28;19975;-69
2021/10/04 02:04:16;;;;;;;;;;;;;;;16.11;100.00;100609.59;5074068;28;19934;-73
2021/10/04 02:06:42;;;;;;;;;;;;;;;16.08;100.00;100622.75;5073632;28;20015;-69
2021/10/04 02:09:09;;;;;;;;;;;;;;;16.03;100.00;100626.84;5073740;28;20015;-69
2021/10/04 02:11:36;;;;;;;;;;;;;;;16.00;100.00;100631.78;5073495;28;19928;-69
2021/10/04 02:14:03;;;;;;;;;;;;;;;15.96;100.00;100638.59;5073671;28;19987;-69
2021/10/04 02:16:29;;;;;;;;;;;;;;;15.87;100.00;100638.56;5073446;28;20031;-69
2021/10/04 02:18:55;;;;;;;;;;;;;;;15.80;100.00;100647.53;5073308;28;20015;-69
2021/10/04 02:21:21;;;;;;;;;;;;;;;15.71;100.00;100652.09;5073278;28;19974;-69
2021/10/04 02:23:48;;;;;;;;;;;;;;;15.62;100.00;100662.13;5073343;28;19929;-69
2021/10/04 02:26:14;;;;;;;;;;;;;;;15.54;100.00;100665.66;5055318;28;19924;-69
2021/10/04 02:28:41;;;;;;;;;;;;;;;15.50;100.00;100668.84;5073036;28;20011;-69
2021/10/04 02:31:08;;;;;;;;;;;;;;;15.45;100.00;100666.59;5073342;28;20360;-69
2021/10/04 02:33:34;;;;;;;;;;;;;;;15.41;100.00;100659.72;5072601;28;19930;-69
2021/10/04 02:36:00;;;;;;;;;;;;;;;15.38;100.00;100668.25;5072935;28;20362;-69
2021/10/04 02:38:27;;;;;;;;;;;;;;;15.35;100.00;100677.63;5073079;28;20023;-69
2021/10/04 02:40:53;;;;;;;;;;;;;;;15.32;100.00;100674.34;5073100;28;20442;-69
2021/10/04 02:43:20;;;;;;;;;;;;;;;15.28;100.00;100676.53;5073042;28;19946;-69
2021/10/04 02:45:48;;;;;;;;;;;;;;;15.23;100.00;100685.22;5072852;28;19975;-69
2021/10/04 02:48:14;;;;;;;;;;;;;;;15.18;100.00;100693.03;5072987;28;20027;-69
2021/10/04 02:50:41;;;;;;;;;;;;;;;15.15;100.00;100693.34;5072761;28;20362;-69
2021/10/04 02:53:08;;;;;;;;;;;;;;;15.12;100.00;100695.50;5072819;28;20111;-69
2021/10/04 02:55:34;;;;;;;;;;;;;;;15.09;100.00;100698.56;5072714;28;20015;-70
2021/10/04 02:58:00;;;;;;;;;;;;;;;15.05;100.00;100704.31;5072507;28;19982;-69
2021/10/04 03:00:27;;;;;;;;;;;;;;;15.00;100.00;100705.81;5072746;28;19967;-69
2021/10/04 03:02:54;;;;;;;;;;;;;;;14.94;100.00;100706.41;5072419;28;20015;-70
2021/10/04 03:05:21;;;;;;;;;;;;;;;14.87;100.00;100712.50;5072750;28;20471;-69
2021/10/04 03:07:47;;;;;;;;;;;;;;;14.81;100.00;100715.00;5072388;28;20022;-69
2021/10/04 03:10:13;;;;;;;;;;;;;;;14.76;100.00;100709.97;5072583;28;19950;-69
2021/10/04 03:12:39;;;;;;;;;;;;;;;14.70;100.00;100719.66;5072056;28;19924;-70
2021/10/04 03:15:06;;;;;;;;;;;;;;;14.67;100.00;100728.16;5072372;28;20015;-70
2021/10/04 03:17:33;;;;;;;;;;;;;;;14.63;100.00;100734.94;5071948;28;20019;-70
2021/10/04 03:20:00;;;;;;;;;;;;;;;14.60;100.00;100723.41;5054439;28;20011;-69
2021/10/04 03:22:27;;;;;;;;;;;;;;;14.58;100.00;100737.22;5072121;28;19924;-69
2021/10/04 03:24:53;;;;;;;;;;;;;;;14.57;100.00;100727.31;5072498;28;20039;-69
2021/10/04 03:27:19;;;;;;;;;;;;;;;14.53;100.00;100737.66;5071940;28;19964;-69
2021/10/04 03:29:46;;;;;;;;;;;;;;;14.53;100.00;100732.19;5071781;28;20013;-69
2021/10/04 03:32:12;;;;;;;;;;;;;;;14.52;100.00;100738.69;5071709;28;19955;-73
2021/10/04 03:34:38;;;;;;;;;;;;;;;14.49;100.00;100736.25;5072030;28;20001;-73
2021/10/04 03:37:06;;;;;;;;;;;;;;;14.47;100.00;100740.13;5071362;28;19971;-74
2021/10/04 03:39:32;;;;;;;;;;;;;;;14.44;100.00;100743.16;5053833;28;20348;-74
2021/10/04 03:41:58;;;;;;;;;;;;;;;14.42;100.00;100747.91;5071802;28;20023;-73
2021/10/04 03:44:25;;;;;;;;;;;;;;;14.40;100.00;100764.44;5071861;28;20027;-73
2021/10/04 03:46:51;;;;;;;;;;;;;;;14.36;100.00;100768.47;5071670;28;20562;-74
2021/10/04 03:49:17;;;;;;;;;;;;;;;14.33;100.00;100772.38;5071474;28;19966;-74
2021/10/04 03:51:44;;;;;;;;;;;;;;;14.29;100.00;100772.81;5071543;28;20374;-74
2021/10/04 03:54:11;;;;;;;;;;;;;;;14.26;100.00;100790.38;5072091;28;20043;-73
2021/10/04 03:56:37;;;;;;;;;;;;;;;14.20;100.00;100783.63;5071542;28;20258;-74
2021/10/04 03:59:04;;;;;;;;;;;;;;;14.14;100.00;100797.84;5071748;28;19924;-73
2021/10/04 04:01:30;;;;;;;;;;;;;;;14.05;100.00;100804.19;5071253;28;19924;-74
2021/10/04 04:03:56;;;;;;;;;;;;;;;13.98;100.00;100806.63;5053258;28;20374;-73
2021/10/04 04:06:23;;;;;;;;;;;;;;;13.90;100.00;100799.16;5071030;28;20028;-73
2021/10/04 04:08:49;;;;;;;;;;;;;;;13.84;100.00;100802.50;5071299;28;20449;-73
2021/10/04 04:11:16;;;;;;;;;;;;;;;13.78;100.00;100791.28;5071565;28;20403;-74
2021/10/04 04:13:43;;;;;;;;;;;;;;;13.69;100.00;100799.31;5071248;28;19932;-73
2021/10/04 04:16:09;;;;;;;;;;;;;;;13.63;100.00;100799.03;5053297;28;19970;-74
2021/10/04 04:18:35;;;;;;;;;;;;;;;13.59;100.00;100786.69;5071294;28;20007;-74
2021/10/04 04:21:02;;;;;;;;;;;;;;;13.55;100.00;100791.56;5071494;28;20015;-73
2021/10/04 04:23:28;;;;;;;;;;;;;;;13.51;100.00;100811.97;5071217;28;19925;-74
2021/10/04 04:25:54;;;;;;;;;;;;;;;13.47;100.00;100826.84;5071176;28;20027;-73
2021/10/04 04:28:22;;;;;;;;;;;;;;;13.43;100.00;100823.56;5071500;28;20340;-72
2021/10/04 04:30:48;;;;;;;;;;;;;;;13.42;100.00;100810.94;5070945;28;20304;-74
2021/10/04 04:33:15;;;;;;;;;;;;;;;13.37;100.00;100825.00;5053088;28;20287;-74
2021/10/04 04:35:41;;;;;;;;;;;;;;;13.35;100.00;100834.28;5070957;28;19929;-74
2021/10/04 04:38:07;;;;;;;;;;;;;;;13.34;100.00;100852.47;5070745;28;20366;-74
2021/10/04 04:40:34;;;;;;;;;;;;;;;13.33;100.00;100841.72;5070944;28;20034;-74
2021/10/04 04:43:00;;;;;;;;;;;;;;;13.33;100.00;100839.84;5057269;28;20034;-74
2021/10/04 04:45:28;;;;;;;;;;;;;;;13.33;100.00;100842.56;5071232;28;20355;-74
2021/10/04 04:47:54;;;;;;;;;;;;;;;13.33;100.00;100841.72;5070592;28;20031;-69
2021/10/04 04:50:20;;;;;;;;;;;;;;;13.33;100.00;100860.81;5070504;28;20026;-69
2021/10/04 04:52:47;;;;;;;;;;;;;;;13.30;100.00;100872.00;5071015;28;19924;-70
2021/10/04 04:55:13;;;;;;;;;;;;;;;13.30;100.00;100878.31;5089151;28;19928;-70
2021/10/04 04:57:40;;;;;;;;;;;;;;;13.28;100.00;100882.16;5090754;28;19924;-69
2021/10/04 05:00:07;;;;;;;;;;;;;;;13.27;100.00;100880.44;5079067;28;20023;-69
2021/10/04 05:02:36;;;;;;;;;;;;;;;13.28;100.00;100874.00;5090827;28;19928;-69
2021/10/04 05:05:03;;;;;;;;;;;;;;;13.27;100.00;100880.44;5073943;28;19928;-69
2021/10/04 05:07:30;;;;;;;;;;;;;;;13.26;100.00;100881.47;5070653;28;19925;-69
2021/10/04 05:09:56;;;;;;;;;;;;;;;13.23;100.00;100888.91;5085852;28;19924;-69
2021/10/04 05:12:22;;;;;;;;;;;;;;;13.23;100.00;100890.78;5090769;28;19924;-69
2021/10/04 05:14:49;;;;;;;;;;;;;;;13.23;100.00;100904.41;5081785;28;20381;-69
2021/10/04 05:17:15;;;;;;;;;;;;;;;13.19;100.00;100914.72;5082682;28;19924;-69
2021/10/04 05:19:42;;;;;;;;;;;;;;;13.20;100.00;100918.28;5073891;28;20011;-70
2021/10/04 05:22:09;;;;;;;;;;;;;;;13.18;100.00;100926.59;5083103;28;19924;-69
2021/10/04 05:24:36;;;;;;;;;;;;;;;13.17;100.00;100926.75;5078935;28;19971;-69
2021/10/04 05:27:02;;;;;;;;;;;;;;;13.18;100.00;100921.16;5074073;28;20028;-69
2021/10/04 05:29:28;;;;;;;;;;;;;;;13.19;100.00;100922.88;5082352;28;20010;-69
2021/10/04 05:31:55;;;;;;;;;;;;;;;13.17;100.00;100924.88;5094333;28;20022;-69
2021/10/04 05:34:21;;;;;;;;;;;;;;;13.15;100.00;100923.31;5079930;28;20022;-69
2021/10/04 05:36:48;;;;;;;;;;;;;;;13.14;100.00;100919.69;5073861;28;20383;-69
2021/10/04 05:39:15;;;;;;;;;;;;;;;13.13;100.00;100923.41;5085939;28;19931;-69
2021/10/04 05:41:41;;;;;;;;;;;;;;;13.11;100.00;100930.88;5073611;28;20426;-70
2021/10/04 05:44:08;;;;;;;;;;;;;;;13.11;100.00;100930.88;5049962;28;19932;-69
2021/10/04 05:46:35;;;;;;;;;;;;;;;13.14;100.00;100930.59;5058760;28;20310;-69
2021/10/04 05:49:01;;;;;;;;;;;;;;;13.16;100.00;100934.06;5061197;28;19928;-69
2021/10/04 05:51:27;;;;;;;;;;;;;;;13.18;100.00;100923.88;5073734;28;20011;-70
2021/10/04 05:53:55;;;;;;;;;;;;;;;13.18;100.00;100931.19;5084957;28;20011;-69
2021/10/04 05:56:21;;;;;;;;;;;;;;;13.18;100.00;100920.31;5072612;28;19925;-70
2021/10/04 05:58:48;;;;;;;;;;;;;;;13.18;100.00;100906.66;5064816;28;19929;-69
2021/10/04 06:01:14;;;;;;;;;;;;;;;13.17;100.00;100907.66;5078514;28;20015;-70
2021/10/04 06:03:40;;;;;;;;;;;;;;;13.17;100.00;100924.88;5090733;28;19964;-69
2021/10/04 06:06:06;;;;;;;;;;;;;;;13.13;100.00;100942.50;5086796;28;20375;-70
2021/10/04 06:08:33;;;;;;;;;;;;;;;13.13;100.00;100956.13;5073716;28;20453;-69
2021/10/04 06:11:00;;;;;;;;;;;;;;;13.15;100.00;100961.47;5092277;28;20007;-69
2021/10/04 06:13:27;;;;;;;;;;;;;;;13.16;100.00;100958.59;5081102;28;19925;-69
2021/10/04 06:15:53;;;;;;;;;;;;;;;13.18;100.00;100956.59;5055431;28;19946;-69
2021/10/04 06:18:19;;;;;;;;;;;;;;;13.18;100.00;100937.50;5067788;28;19928;-69
2021/10/04 06:20:46;;;;;;;;;;;;;;;13.19;100.00;100939.25;5093456;28;19932;-69
2021/10/04 06:23:12;;;;;;;;;;;;;;;13.20;100.00;100946.41;5086777;28;19932;-69
2021/10/04 06:25:39;;;;;;;;;;;;;;;13.25;100.00;100956.91;5068020;28;20344;-75
2021/10/04 06:28:06;;;;;;;;;;;;;;;13.26;100.00;100955.91;5073152;28;20278;-75
2021/10/04 06:30:33;;;;;;;;;;;;;;;13.30;100.00;100953.78;5074742;28;20011;-75
2021/10/04 06:32:59;;;;;;;;;;;;;;;13.28;100.00;100950.31;5063139;28;20439;-75
2021/10/04 06:35:25;;;;;;;;;;;;;;;13.32;100.00;100954.50;5073215;28;19932;-75
2021/10/04 06:37:52;;;;;;;;;;;;;;;13.35;100.00;100963.28;5072619;28;19924;-75
2021/10/04 06:40:18;;;;;;;;;;;;;;;13.37;100.00;100974.94;5073183;28;20023;-75
2021/10/04 06:42:44;;;;;;;;;;;;;;;13.38;100.00;100979.38;5054754;28;20471;-75
2021/10/04 06:45:12;;;;;;;;;;;;;;;13.41;100.00;100974.66;5072921;28;20099;-75
2021/10/04 06:47:39;;;;;;;;;;;;;;;13.39;100.00;100974.81;5055050;28;19951;-75
2021/10/04 06:50:06;;;;;;;;;;;;;;;13.41;100.00;100977.41;5075864;28;20011;-75
2021/10/04 06:52:32;;;;;;;;;;;;;;;13.36;100.00;100986.84;5072785;28;20372;-75
2021/10/04 06:54:59;;;;;;;;;;;;;;;13.37;100.00;100996.75;5071752;28;19925;-73
2021/10/04 06:57:25;;;;;;;;;;;;;;;13.41;100.00;101001.94;5072529;28;19932;-73
2021/10/04 06:59:51;;;;;;;;;;;;;;;13.40;100.00;101001.06;5060194;28;20433;-74
2021/10/04 07:02:19;;;;;;;;;;;;;;;13.41;100.00;100993.75;5072325;28;20019;-75
2021/10/04 07:04:45;;;;;;;;;;;;;;;13.42;100.00;100998.22;5070498;28;20017;-75
2021/10/04 07:07:13;;;;;;;;;;;;;;;13.44;100.00;100988.91;5084388;28;20142;-75
2021/10/04 07:09:40;;;;;;;;;;;;;;;13.44;100.00;100983.44;5088843;28;20383;-75
2021/10/04 07:12:06;;;;;;;;;;;;;;;13.45;100.00;100990.59;5086156;28;20047;-75
2021/10/04 07:14:32;;;;;;;;;;;;;;;13.46;100.00;100989.59;5071882;28;20020;-75
2021/10/04 07:16:59;;;;;;;;;;;;;;;13.46;100.00;100995.06;5072029;28;19959;-75
2021/10/04 07:19:26;;;;;;;;;;;;;;;13.43;100.00;100995.34;5072071;28;19963;-75
2021/10/04 07:21:53;;;;;;;;;;;;;;;13.45;100.00;100998.78;5072844;28;20015;-75
2021/10/04 07:24:19;;;;;;;;;;;;;;;13.44;100.00;100988.00;5071891;28;20011;-75
2021/10/04 07:26:47;;;;;;;;;;;;;;;13.44;100.00;100986.16;5076000;28;19938;-75
2021/10/04 07:29:13;;;;;;;;;;;;;;;13.45;100.00;101003.38;5075796;28;19925;-75
2021/10/04 07:31:40;;;;;;;;;;;;;;;13.47;100.00;101015.88;5071588;28;20011;-75
2021/10/04 07:34:07;;;;;;;;;;;;;;;13.49;100.00;101022.03;5071668;28;20003;-75
2021/10/04 07:36:35;;;;;;;;;;;;;;;13.52;100.00;101023.63;5072549;28;19924;-75
2021/10/04 07:39:02;;;;;;;;;;;;;;;13.55;100.00;101026.13;5077265;28;20028;-75
2021/10/04 07:41:28;;;;;;;;;;;;;;;13.59;100.00;101032.13;5071668;28;19960;-75
2021/10/04 07:43:54;;;;;;;;;;;;;;;13.66;100.00;101025.16;5073937;28;20325;-68
2021/10/04 07:46:21;;;;;;;;;;;;;;;13.68;100.00;101036.78;5090897;28;20023;-69
2021/10/04 07:48:47;;;;;;;;;;;;;;;13.66;100.00;101034.19;5053697;28;20027;-69
2021/10/04 07:51:15;;;;;;;;;;;;;;;13.66;100.00;101038.78;5072651;28;19924;-69
2021/10/04 07:53:43;;;;;;;;;;;;;;;13.63;100.00;101039.03;5087278;28;19978;-70
2021/10/04 07:56:09;;;;;;;;;;;;;;;13.60;100.00;101045.63;5084230;28;20260;-69
2021/10/04 07:58:35;;;;;;;;;;;;;;;13.59;100.00;101056.69;5077938;28;19928;-69
2021/10/04 08:01:02;;;;;;;;;;;;;;;13.53;100.00;101061.69;5073301;28;20015;-69
2021/10/04 08:03:28;;;;;;;;;;;;;;;13.53;100.00;101067.13;5081708;28;19967;-69
2021/10/04 08:05:54;;;;;;;;;;;;;;;13.51;100.00;101054.66;5071708;28;20366;-68
2021/10/04 08:08:20;;;;;;;;;;;;;;;13.52;100.00;101059.97;5075614;28;20022;-69
2021/10/04 08:10:48;;;;;;;;;;;;;;;13.58;100.00;101052.25;5071019;28;19924;-69
2021/10/04 08:13:14;;;;;;;;;;;;;;;13.66;100.00;101057.88;5072156;28;19928;-69
2021/10/04 08:15:41;;;;;;;;;;;;;;;13.76;100.00;101056.03;5061000;28;19982;-69
2021/10/04 08:18:07;;;;;;;;;;;;;;;13.86;100.00;101040.56;5070849;28;20018;-69
2021/10/04 08:20:34;;;;;;;;;;;;;;;13.96;100.00;101040.59;5075114;28;20019;-69
2021/10/04 08:23:00;;;;;;;;;;;;;;;14.01;100.00;101048.38;5070892;28;20410;-69
2021/10/04 08:25:26;;;;;;;;;;;;;;;14.09;100.00;101064.06;5076198;28;20014;-68
2021/10/04 08:27:54;;;;;;;;;;;;;;;14.22;100.00;101067.41;5089481;28;19939;-69
2021/10/04 08:30:20;;;;;;;;;;;;;;;14.37;100.00;101070.59;5083064;28;20027;-69
2021/10/04 08:32:47;;;;;;;;;;;;;;;14.46;100.00;101075.22;5070740;28;19934;-75
2021/10/04 08:35:14;;;;;;;;;;;;;;;14.48;100.00;101075.06;5077429;28;20317;-69
2021/10/04 08:37:40;;;;;;;;;;;;;;;14.55;100.00;101081.66;5079846;28;20403;-69
2021/10/04 08:40:08;;;;;;;;;;;;;;;14.49;100.00;101079.53;5075557;28;20023;-69
2021/10/04 08:42:34;;;;;;;;;;;;;;;14.47;100.00;101079.66;5085021;28;20443;-69
2021/10/04 08:45:02;;;;;;;;;;;;;;;14.40;100.00;101083.94;5071138;28;19963;-69
2021/10/04 08:47:30;;;;;;;;;;;;;;;14.37;100.00;101082.38;5070601;28;19959;-69
2021/10/04 08:49:57;;;;;;;;;;;;;;;14.33;100.00;101085.53;5074959;28;19932;-68
2021/10/04 08:52:23;;;;;;;;;;;;;;;14.29;100.00;101086.81;5076048;28;20032;-68
2021/10/04 08:54:50;;;;;;;;;;;;;;;14.27;100.00;101086.09;5073334;28;19930;-68
2021/10/04 08:57:16;;;;;;;;;;;;;;;14.20;100.00;101088.50;5074911;28;20016;-68
2021/10/04 08:59:42;;;;;;;;;;;;;;;14.07;100.00;101088.78;5074643;28;20435;-69
2021/10/04 09:02:24;;;;;;;;;;;;;;;13.99;100.00;101104.94;5078591;28;20016;-69
2021/10/04 09:05:11;;;;;;;;;;;;;;;13.92;100.00;101109.25;5073678;28;19928;-69
2021/10/04 09:07:38;;;;;;;;;;;;;;;13.89;100.00;101111.22;5070419;28;19932;-73
2021/10/04 09:10:04;;;;;;;;;;;;;;;13.92;100.00;101112.81;5074633;28;20480;-73
2021/10/04 09:12:39;;;;;;;;;;;;;;;13.97;100.00;101106.97;5075611;28;20015;-73
2021/10/04 09:15:18;;;;;;;;;;;;;;;13.97;100.00;101115.16;5074236;28;20024;-74
2021/10/04 09:17:45;;;;;;;;;;;;;;;13.98;100.00;101114.16;5068345;28;19986;-74
2021/10/04 09:20:12;;;;;;;;;;;;;;;13.98;100.00;101109.56;5075607;28;20047;-76
2021/10/04 09:22:39;;;;;;;;;;;;;;;14.00;100.00;101107.56;5076385;28;20349;-76
2021/10/04 09:25:06;;;;;;;;;;;;;;;14.05;100.00;101105.28;5074403;28;19924;-76
2021/10/04 09:27:33;;;;;;;;;;;;;;;14.10;100.00;101113.06;5054043;28;20370;-76
2021/10/04 09:30:01;;;;;;;;;;;;;;;14.16;100.00;101109.78;5064583;28;20362;-69
2021/10/04 09:32:28;;;;;;;;;;;;;;;14.21;100.00;101099.28;5073423;28;19952;-69
2021/10/04 09:35:24;;;;;;;;;;;;;;;14.28;100.00;101104.19;5079980;28;20462;-69
2021/10/04 09:37:54;;;;;;;;;;;;;;;14.31;100.00;101117.56;5011709;28;20380;-76
2021/10/04 09:40:28;;;;;;;;;;;;;;;14.32;100.00;101111.09;5064268;28;20015;-75
2021/10/04 09:42:54;;;;;;;;;;;;;;;14.34;100.00;101115.44;5075055;28;19928;-76
2021/10/04 09:45:21;;;;;;;;;;;;;;;14.39;100.00;101110.41;5073288;28;20019;-76
2021/10/04 09:47:47;;;;;;;;;;;;;;;14.45;100.00;101111.72;5076872;28;19928;-69
2021/10/04 09:50:14;;;;;;;;;;;;;;;14.44;100.00;101106.41;5074006;28;20391;-69
2021/10/04 09:52:42;;;;;;;;;;;;;;;14.45;100.00;101114.44;5075735;28;20055;-70
2021/10/04 09:55:14;;;;;;;;;;;;;;;14.46;100.00;101118.91;5068019;28;20357;-70
2021/10/04 09:57:40;;;;;;;;;;;;;;;14.47;100.00;101123.38;5085271;28;20043;-69
2021/10/04 10:00:07;;;;;;;;;;;;;;;14.39;100.00;101129.53;5073609;28;19924;-70
2021/10/04 10:02:34;;;;;;;;;;;;;;;14.37;100.00;101123.31;5083764;28;20359;-74
2021/10/04 10:05:01;;;;;;;;;;;;;;;14.35;100.00;101124.47;5091824;28;19927;-74
2021/10/04 10:07:27;;;;;;;;;;;;;;;14.31;100.00;101142.13;5075589;28;19974;-75
2021/10/04 10:09:55;;;;;;;;;;;;;;;14.24;100.00;101147.28;5073210;28;20359;-75
2021/10/04 10:12:23;;;;;;;;;;;;;;;14.19;100.00;101153.19;5077156;28;19936;-75
2021/10/04 10:14:50;;;;;;;;;;;;;;;14.21;100.00;101148.44;5078649;28;20026;-75
2021/10/04 10:17:18;;;;;;;;;;;;;;;14.22;100.00;101150.16;5093383;28;19928;-75
2021/10/04 10:19:46;;;;;;;;;;;;;;;14.26;100.00;101150.75;5079569;28;20035;-74
2021/10/04 10:22:13;;;;;;;;;;;;;;;14.28;100.00;101147.88;5077498;28;19970;-75
2021/10/04 10:24:40;;;;;;;;;;;;;;;14.39;100.00;101134.09;5073106;28;20011;-74
2021/10/04 10:27:06;;;;;;;;;;;;;;;14.51;100.00;101130.28;5081310;28;20027;-75
2021/10/04 10:29:35;;;;;;;;;;;;;;;14.62;100.00;101122.94;5072823;28;20023;-74
2021/10/04 10:32:12;;;;;;;;;;;;;;;14.75;100.00;101117.25;5074094;28;19933;-74
2021/10/04 10:34:45;;;;;;;;;;;;;;;14.87;100.00;101111.50;5073079;28;20023;-75
2021/10/04 10:37:12;;;;;;;;;;;;;;;14.94;100.00;101097.25;5086636;28;19970;-75
2021/10/04 10:39:42;;;;;;;;;;;;;;;15.14;100.00;101092.63;5092532;28;20027;-75
2021/10/04 10:42:12;;;;;;;;;;;;;;;15.26;100.00;101110.63;5080447;28;19974;-75
2021/10/04 10:44:53;;;;;;;;;;;;;;;15.25;100.00;101114.38;5072223;28;19924;-75
2021/10/04 10:47:46;;;;;;;;;;;;;;;15.32;100.00;101117.38;5071371;28;20015;-74
2021/10/04 10:50:13;;;;;;;;;;;;;;;15.50;100.00;101118.34;5066313;28;20041;-74
2021/10/04 10:52:40;;;;;;;;;;;;;;;15.48;100.00;101125.84;5089014;28;19924;-69
2021/10/04 10:55:21;;;;;;;;;;;;;;;15.41;100.00;101130.19;5092904;28;20011;-69
2021/10/04 10:58:05;;;;;;;;;;;;;;;15.39;100.00;101134.91;5072469;28;19928;-69
2021/10/04 11:00:32;;;;;;;;;;;;;;;15.31;100.00;101135.69;5071984;28;19971;-69
2021/10/04 11:03:01;;;;;;;;;;;;;;;15.25;100.00;101143.59;5075661;28;20280;-69
2021/10/04 11:05:46;;;;;;;;;;;;;;;15.09;100.00;101138.72;5072268;28;19930;-69
2021/10/04 11:08:13;;;;;;;;;;;;;;;14.91;100.00;101155.81;5072506;28;20399;-69
2021/10/04 11:10:55;;;;;;;;;;;;;;;14.78;100.00;101150.63;5074302;28;19977;-70
2021/10/04 11:13:23;;;;;;;;;;;;;;;14.71;100.00;101143.97;5085213;28;19967;-69
2021/10/04 11:15:49;;;;;;;;;;;;;;;14.66;100.00;101146.31;5081354;28;19976;-69
2021/10/04 11:18:17;;;;;;;;;;;;;;;14.64;100.00;101140.09;5071858;28;19925;-69
2021/10/04 11:20:43;;;;;;;;;;;;;;;14.66;100.00;101146.31;5072776;28;20007;-69
2021/10/04 11:23:11;;;;;;;;;;;;;;;14.68;100.00;101157.94;5071555;28;19924;-69
2021/10/04 11:25:40;;;;;;;;;;;;;;;14.75;100.00;101150.88;5078820;28;19928;-69
2021/10/04 11:28:07;;;;;;;;;;;;;;;14.78;100.00;101138.81;5088949;28;20403;-69
2021/10/04 11:30:48;;;;;;;;;;;;;;;14.80;100.00;101143.13;5087031;28;19978;-74
2021/10/04 11:33:14;;;;;;;;;;;;;;;14.84;100.00;101144.56;5059502;28;20003;-74
2021/10/04 11:35:53;;;;;;;;;;;;;;;14.91;100.00;101144.88;5071484;28;19982;-74
2021/10/04 11:38:20;;;;;;;;;;;;;;;14.97;100.00;101140.72;5072111;28;20011;-74
2021/10/04 11:40:46;;;;;;;;;;;;;;;14.97;100.00;101140.72;5053277;28;20251;-74
2021/10/04 11:43:13;;;;;;;;;;;;;;;14.98;100.00;101140.56;5054746;28;19947;-74
2021/10/04 11:45:39;;;;;;;;;;;;;;;14.99;100.00;101135.97;5091626;28;19981;-74
2021/10/04 11:48:06;;;;;;;;;;;;;;;15.01;100.00;101140.28;5089844;28;20479;-74
2021/10/04 11:50:33;;;;;;;;;;;;;;;14.95;100.00;101142.72;5091615;28;20015;-74
2021/10/04 11:53:01;;;;;;;;;;;;;;;14.95;100.00;101150.91;5083689;28;20015;-75
2021/10/04 11:55:27;;;;;;;;;;;;;;;14.90;100.00;101152.22;5073324;28;19932;-75
2021/10/04 11:57:54;;;;;;;;;;;;;;;14.90;100.00;101151.38;5089663;28;19924;-74
2021/10/04 12:00:20;;;;;;;;;;;;;;;14.88;100.00;101147.91;5081900;28;19978;-74
2021/10/04 12:02:48;;;;;;;;;;;;;;;14.93;100.00;101147.47;5072060;28;19924;-74
2021/10/04 12:05:16;;;;;;;;;;;;;;;14.96;100.00;101139.00;5033462;28;20238;-74
2021/10/04 12:08:04;;;;;;;;;;;;;;;14.89;100.00;101146.91;5066321;28;20015;-74
2021/10/04 12:10:38;;;;;;;;;;;;;;;14.88;100.00;101145.16;5091237;28;19986;-74
2021/10/04 12:13:04;;;;;;;;;;;;;;;14.84;100.00;101152.78;5085820;28;19925;-74
2021/10/04 12:15:31;;;;;;;;;;;;;;;14.71;100.00;101164.00;5088410;28;19959;-75
2021/10/04 12:17:58;;;;;;;;;;;;;;;14.75;100.00;101169.16;5082496;28;19925;-75
2021/10/04 12:20:24;;;;;;;;;;;;;;;14.66;100.00;101162.69;5070872;28;20019;-74
2021/10/04 12:22:51;;;;;;;;;;;;;;;14.62;100.00;101170.28;5071778;28;19929;-74
2021/10/04 12:25:28;;;;;;;;;;;;;;;14.59;100.00;101156.00;5070732;28;19929;-74
2021/10/04 12:28:01;;;;;;;;;;;;;;;14.57;100.00;101156.16;5069819;28;20325;-73
2021/10/04 12:30:40;;;;;;;;;;;;;;;14.57;100.00;101156.16;5076383;28;19928;-72